Time;durP1;ratioP1;P1;durP2;ratioP2;P2;SDS_P1;SDS_P2;PMS_P1;PMS_P2;Temp;Humidity;BMP_temperature;BMP_pressure;BME280_temperature;BME280_humidity;BME280_pressure;Samples;Min_cycle;Max_cycle;Signal;HPM_P1;HPM_P2
2022/06/19 00:01:46;;;;;;;2.70;2.00;;;21.90;64.40;;;;;;5064694;28;20025;-81
2022/06/19 00:04:12;;;;;;;1.80;1.58;;;21.90;64.40;;;;;;5082542;28;20116;-80
2022/06/19 00:06:38;;;;;;;3.35;1.95;;;21.90;64.60;;;;;;5064758;28;20078;-80
2022/06/19 00:09:05;;;;;;;3.47;2.22;;;21.80;64.60;;;;;;5061946;28;20029;-82
2022/06/19 00:11:31;;;;;;;3.13;1.88;;;21.80;64.60;;;;;;5063879;28;20477;-80
2022/06/19 00:13:56;;;;;;;3.05;2.08;;;21.80;64.80;;;;;;5043918;28;20071;-80
2022/06/19 00:16:22;;;;;;;4.00;1.83;;;21.70;64.60;;;;;;5061827;28;20025;-80
2022/06/19 00:18:48;;;;;;;7.20;2.78;;;21.70;64.80;;;;;;5061856;28;20434;-79
2022/06/19 00:21:15;;;;;;;4.63;2.38;;;21.70;64.80;;;;;;5060779;28;20039;-81
2022/06/19 00:23:42;;;;;;;2.22;1.67;;;21.60;64.80;;;;;;5061298;28;20025;-81
2022/06/19 00:26:08;;;;;;;4.50;2.00;;;21.60;65.10;;;;;;5069219;28;20140;-80
2022/06/19 00:28:34;;;;;;;3.53;1.80;;;21.50;65.10;;;;;;5080515;28;20040;-81
2022/06/19 00:30:59;;;;;;;4.65;2.08;;;21.50;65.10;;;;;;5077931;28;20088;-80
2022/06/19 00:33:26;;;;;;;5.85;2.05;;;21.50;65.40;;;;;;5071420;28;20068;-80
2022/06/19 00:35:51;;;;;;;6.00;1.88;;;21.50;65.40;;;;;;5061199;28;20051;-78
2022/06/19 00:38:17;;;;;;;4.35;2.30;;;21.50;65.30;;;;;;5063152;28;20055;-82
2022/06/19 00:40:43;;;;;;;3.70;2.10;;;21.50;65.30;;;;;;5061131;28;20465;-82
2022/06/19 00:43:08;;;;;;;4.75;2.08;;;21.50;65.40;;;;;;5060306;28;20041;-80
2022/06/19 00:45:49;;;;;;;2.40;1.67;;;21.40;65.40;;;;;;5043114;28;20059;-81
2022/06/19 00:48:37;;;;;;;5.95;2.10;;;21.40;65.40;;;;;;5042504;28;20029;-80
2022/06/19 00:51:05;;;;;;;5.30;2.45;;;21.40;65.50;;;;;;5041236;28;20025;-80
2022/06/19 00:53:46;;;;;;;5.55;2.88;;;21.30;65.70;;;;;;5040208;28;20039;-77
2022/06/19 00:56:18;;;;;;;5.63;1.70;;;21.30;66.10;;;;;;5065610;28;20033;-82
2022/06/19 00:58:45;;;;;;;4.47;2.22;;;21.30;66.10;;;;;;5061742;28;20324;-82
2022/06/19 01:01:20;;;;;;;5.65;1.80;;;21.30;66.00;;;;;;5060962;28;20064;-80
2022/06/19 01:04:03;;;;;;;5.90;2.20;;;21.20;66.20;;;;;;5059981;28;20039;-81
2022/06/19 01:06:29;;;;;;;3.95;2.08;;;21.20;66.40;;;;;;5060841;28;20074;-80
2022/06/19 01:08:56;;;;;;;2.65;1.83;;;21.20;66.70;;;;;;5061128;28;20021;-80
2022/06/19 01:11:24;;;;;;;7.05;2.63;;;21.10;67.20;;;;;;5059810;28;20069;-80
2022/06/19 01:13:51;;;;;;;4.85;2.08;;;21.00;66.60;;;;;;5060527;28;20112;-81
2022/06/19 01:16:17;;;;;;;3.67;2.15;;;21.00;66.90;;;;;;5060363;28;20029;-81
2022/06/19 01:18:42;;;;;;;4.70;2.38;;;21.00;67.10;;;;;;5059890;28;20051;-81
2022/06/19 01:21:25;;;;;;;6.70;2.88;;;21.00;67.30;;;;;;5060114;28;20032;-80
2022/06/19 01:23:59;;;;;;;3.20;2.75;;;20.90;67.80;;;;;;5060148;28;20068;-78
2022/06/19 01:26:25;;;;;;;5.00;2.20;;;20.80;68.30;;;;;;5069850;28;20025;-79
2022/06/19 01:28:55;;;;;;;5.95;2.15;;;20.70;68.70;;;;;;5079752;28;20026;-80
2022/06/19 01:31:25;;;;;;;5.78;2.50;;;20.60;69.20;;;;;;5063050;28;20385;-80
2022/06/19 01:33:59;;;;;;;5.93;2.60;;;20.50;69.70;;;;;;5080571;28;20033;-79
2022/06/19 01:36:28;;;;;;;2.38;1.63;;;20.50;70.00;;;;;;5079920;28;20020;-80
2022/06/19 01:38:54;;;;;;;3.20;2.30;;;20.50;69.90;;;;;;5061906;28;20125;-79
2022/06/19 01:41:30;;;;;;;5.18;2.03;;;20.40;70.00;;;;;;5081574;28;20112;-79
2022/06/19 01:43:56;;;;;;;4.90;2.40;;;20.40;69.90;;;;;;5079413;28;20085;-79
2022/06/19 01:46:24;;;;;;;7.15;2.78;;;20.40;69.60;;;;;;5068634;28;20025;-77
2022/06/19 01:48:51;;;;;;;9.00;2.97;;;20.50;69.30;;;;;;5060109;28;20021;-81
2022/06/19 01:51:16;;;;;;;10.18;2.95;;;20.60;69.10;;;;;;5060048;28;20025;-80
2022/06/19 01:54:00;;;;;;;7.72;2.90;;;20.70;69.00;;;;;;5059487;28;20028;-80
2022/06/19 01:56:26;;;;;;;8.15;2.63;;;20.70;68.90;;;;;;5070475;28;20029;-81
2022/06/19 01:58:56;;;;;;;5.18;2.72;;;20.70;68.70;;;;;;5079625;28;20059;-81
2022/06/19 02:01:21;;;;;;;7.88;3.03;;;20.80;69.20;;;;;;5061431;28;20024;-80
2022/06/19 02:03:52;;;;;;;9.63;3.33;;;20.80;68.50;;;;;;5061532;28;20083;-80
2022/06/19 02:06:23;;;;;;;7.68;2.78;;;20.70;68.50;;;;;;5059905;28;20478;-81
2022/06/19 02:08:50;;;;;;;5.63;2.70;;;20.70;68.40;;;;;;5059676;28;20061;-80
2022/06/19 02:11:16;;;;;;;5.90;2.50;;;20.80;68.40;;;;;;5060511;28;20036;-80
2022/06/19 02:13:43;;;;;;;6.57;3.10;;;20.70;68.40;;;;;;5058502;28;20054;-80
2022/06/19 02:16:14;;;;;;;8.20;3.35;;;20.70;68.60;;;;;;5059057;28;20055;-81
2022/06/19 02:18:43;;;;;;;9.15;3.33;;;20.70;68.80;;;;;;5060032;28;20024;-81
2022/06/19 02:21:18;;;;;;;7.00;2.92;;;20.70;69.00;;;;;;5060088;28;20386;-78
2022/06/19 02:23:44;;;;;;;7.90;2.85;;;20.60;69.10;;;;;;5059201;28;20021;-80
2022/06/19 02:26:11;;;;;;;8.18;3.03;;;20.60;69.40;;;;;;5068187;28;20037;-82
2022/06/19 02:28:49;;;;;;;6.68;3.20;;;20.60;69.50;;;;;;5079996;28;20024;-78
2022/06/19 02:31:16;;;;;;;5.32;2.45;;;20.50;69.70;;;;;;5084447;28;20079;-78
2022/06/19 02:33:46;;;;;;;6.85;2.65;;;20.40;70.00;;;;;;5079621;28;20035;-79
2022/06/19 02:36:41;;;;;;;3.67;2.30;;;20.40;70.30;;;;;;5066920;28;20021;-80
2022/06/19 02:39:45;;;;;;;4.38;2.60;;;20.30;70.80;;;;;;5063619;28;20073;-80
2022/06/19 02:42:14;;;;;;;4.45;2.42;;;20.30;71.10;;;;;;5048200;28;20036;-78
2022/06/19 02:44:41;;;;;;;3.83;2.28;;;20.20;71.40;;;;;;5061384;28;20707;-79
2022/06/19 02:47:08;;;;;;;6.95;2.53;;;20.10;71.50;;;;;;5064125;28;20021;-80
2022/06/19 02:49:34;;;;;;;2.45;2.08;;;20.10;71.90;;;;;;5064590;28;20067;-81
2022/06/19 02:52:01;;;;;;;5.53;2.10;;;20.00;72.30;;;;;;5064474;28;20021;-80
2022/06/19 02:54:27;;;;;;;3.35;2.28;;;20.00;72.50;;;;;;5063361;28;20057;-81
2022/06/19 02:56:52;;;;;;;3.92;2.30;;;20.00;72.90;;;;;;5074302;28;20095;-81
2022/06/19 02:59:18;;;;;;;4.32;2.85;;;19.90;73.30;;;;;;5083983;28;20016;-80
2022/06/19 03:01:44;;;;;;;3.92;2.53;;;19.80;73.50;;;;;;5066089;28;20021;-78
2022/06/19 03:04:25;;;;;;;4.78;2.90;;;19.80;73.80;;;;;;5082673;28;20029;-77
2022/06/19 03:06:52;;;;;;;4.15;2.50;;;19.80;74.00;;;;;;5084638;28;20442;-80
2022/06/19 03:09:17;;;;;;;4.78;2.55;;;19.80;74.20;;;;;;5072932;28;20366;-77
2022/06/19 03:11:43;;;;;;;5.53;2.25;;;19.80;74.20;;;;;;5064351;28;20025;-79
2022/06/19 03:14:09;;;;;;;7.60;3.03;;;19.70;74.20;;;;;;5061347;28;20107;-79
2022/06/19 03:16:35;;;;;;;3.22;2.45;;;19.70;74.50;;;;;;5061646;28;20032;-80
2022/06/19 03:19:01;;;;;;;3.42;2.20;;;19.70;74.70;;;;;;5062113;28;20021;-79
2022/06/19 03:21:28;;;;;;;4.43;2.45;;;19.60;74.70;;;;;;5063794;28;20028;-79
2022/06/19 03:23:53;;;;;;;4.68;2.60;;;19.60;74.70;;;;;;5061569;28;20062;-80
2022/06/19 03:26:19;;;;;;;5.70;2.83;;;19.60;74.80;;;;;;5071511;28;20063;-80
2022/06/19 03:28:45;;;;;;;4.13;2.33;;;19.60;74.80;;;;;;5081304;28;20024;-80
2022/06/19 03:31:22;;;;;;;3.63;2.15;;;19.60;74.90;;;;;;5081923;28;20032;-78
2022/06/19 03:33:48;;;;;;;4.88;2.60;;;19.70;74.90;;;;;;5068528;28;20041;-78
2022/06/19 03:36:14;;;;;;;3.47;2.50;;;19.60;74.60;;;;;;5063431;28;20143;-82
2022/06/19 03:38:39;;;;;;;4.63;2.28;;;19.60;74.60;;;;;;5060351;28;20045;-79
2022/06/19 03:41:05;;;;;;;5.18;2.42;;;19.60;74.20;;;;;;5061125;28;20079;-81
2022/06/19 03:43:33;;;;;;;7.97;3.08;;;19.60;74.00;;;;;;5061457;28;20032;-81
2022/06/19 03:46:12;;;;;;;9.05;2.83;;;19.70;73.40;;;;;;5061681;28;20304;-81
2022/06/19 03:48:40;;;;;;;4.88;2.38;;;19.80;73.00;;;;;;5062477;28;20044;-79
2022/06/19 03:51:06;;;;;;;3.22;2.25;;;19.90;72.40;;;;;;5063782;28;20029;-82
2022/06/19 03:53:31;;;;;;;8.00;3.35;;;19.90;71.40;;;;;;5061292;28;20063;-81
2022/06/19 03:55:58;;;;;;;4.57;2.53;;;20.00;70.80;;;;;;5067989;28;20043;-81
2022/06/19 03:58:24;;;;;;;4.32;2.42;;;20.20;70.20;;;;;;5050418;28;20043;-81
2022/06/19 04:00:49;;;;;;;5.43;2.78;;;20.20;69.70;;;;;;5060989;28;20029;-83
2022/06/19 04:03:15;;;;;;;3.88;2.00;;;20.30;69.20;;;;;;5060915;28;20534;-80
2022/06/19 04:05:41;;;;;;;6.13;2.38;;;20.40;68.90;;;;;;5061569;28;20025;-79
2022/06/19 04:08:06;;;;;;;5.03;2.08;;;20.40;68.70;;;;;;5063319;28;20060;-80
2022/06/19 04:10:33;;;;;;;2.75;1.95;;;20.50;68.40;;;;;;5060900;28;20470;-80
2022/06/19 04:12:58;;;;;;;3.67;2.15;;;20.50;68.00;;;;;;5063071;28;20358;-81
2022/06/19 04:15:24;;;;;;;3.05;1.77;;;20.60;67.70;;;;;;5061133;28;20025;-82
2022/06/19 04:17:50;;;;;;;5.22;2.00;;;20.60;67.30;;;;;;5059881;28;20005;-80
2022/06/19 04:20:15;;;;;;;5.85;2.55;;;20.70;66.90;;;;;;5058518;28;20497;-78
2022/06/19 04:22:41;;;;;;;4.90;1.70;;;20.80;66.40;;;;;;5060453;28;20105;-84
2022/06/19 04:25:13;;;;;;;5.30;1.98;;;20.80;66.00;;;;;;5045467;28;20461;-77
2022/06/19 04:27:40;;;;;;;7.15;2.17;;;20.90;66.00;;;;;;5076535;28;20055;-78
2022/06/19 04:30:07;;;;;;;3.95;2.08;;;21.00;65.70;;;;;;5077789;28;20025;-82
2022/06/19 04:32:32;;;;;;;4.70;1.88;;;21.00;65.50;;;;;;5063143;28;20040;-79
2022/06/19 04:34:58;;;;;;;5.65;2.25;;;21.00;65.10;;;;;;5061733;28;20081;-81
2022/06/19 04:37:24;;;;;;;4.82;2.20;;;21.10;65.70;;;;;;5061108;28;20013;-80
2022/06/19 04:39:49;;;;;;;7.72;2.40;;;21.20;64.80;;;;;;5043982;28;20033;-80
2022/06/19 04:42:15;;;;;;;4.28;2.28;;;21.30;64.50;;;;;;5061643;28;20025;-80
2022/06/19 04:44:40;;;;;;;2.78;1.70;;;21.40;64.30;;;;;;5060789;28;20040;-81
2022/06/19 04:47:06;;;;;;;3.97;2.42;;;21.50;64.10;;;;;;5063018;28;20029;-79
2022/06/19 04:49:32;;;;;;;4.47;2.10;;;21.60;63.80;;;;;;5061493;28;20025;-79
2022/06/19 04:51:57;;;;;;;4.78;2.17;;;21.70;63.50;;;;;;5043281;28;20021;-81
2022/06/19 04:54:23;;;;;;;4.93;2.22;;;21.80;63.40;;;;;;5061733;28;20068;-81
2022/06/19 04:56:49;;;;;;;3.08;1.75;;;21.90;63.30;;;;;;5081478;28;20025;-81
2022/06/19 04:59:14;;;;;;;2.25;1.65;;;22.10;63.10;;;;;;5082069;28;20142;-78
2022/06/19 05:01:40;;;;;;;1.73;1.25;;;22.20;63.00;;;;;;5082788;28;20579;-81
2022/06/19 05:04:11;;;;;;;5.05;2.13;;;22.40;62.90;;;;;;5060481;28;20491;-79
2022/06/19 05:06:37;;;;;;;6.57;2.47;;;22.40;62.70;;;;;;5079476;28;20099;-79
2022/06/19 05:09:04;;;;;;;2.60;1.83;;;23.00;62.80;;;;;;5082082;28;20035;-82
2022/06/19 05:11:31;;;;;;;5.38;1.98;;;24.90;59.50;;;;;;5079884;28;20021;-78
2022/06/19 05:13:58;;;;;;;2.97;2.10;;;27.30;54.30;;;;;;5082981;28;20501;-79
2022/06/19 05:16:24;;;;;;;4.53;1.95;;;29.50;49.90;;;;;;5081212;28;20036;-80
2022/06/19 05:18:51;;;;;;;2.25;1.70;;;31.20;46.70;;;;;;5083309;28;20040;-79
2022/06/19 05:21:17;;;;;;;2.78;1.75;;;32.60;44.40;;;;;;5053344;28;20029;-78
2022/06/19 05:23:46;;;;;;;6.35;2.63;;;33.70;42.50;;;;;;5067322;28;20025;-79
2022/06/19 05:26:16;;;;;;;4.88;2.10;;;34.50;40.70;;;;;;5069095;28;20092;-78
2022/06/19 05:28:48;;;;;;;5.90;2.83;;;35.10;40.10;;;;;;5053589;28;20029;-78
2022/06/19 05:31:13;;;;;;;2.67;2.13;;;35.70;39.20;;;;;;5069574;28;20136;-77
2022/06/19 05:33:39;;;;;;;7.18;2.60;;;36.10;38.60;;;;;;5067728;28;20032;-79
2022/06/19 05:36:05;;;;;;;4.10;2.08;;;36.40;38.20;;;;;;5067380;28;20017;-81
2022/06/19 05:38:31;;;;;;;4.03;1.92;;;36.80;37.90;;;;;;5058494;28;20583;-80
2022/06/19 05:40:58;;;;;;;3.38;1.75;;;37.20;37.40;;;;;;5059830;28;20078;-81
2022/06/19 05:43:26;;;;;;;2.97;2.33;;;37.60;36.70;;;;;;5057349;28;20481;-80
2022/06/19 05:45:57;;;;;;;2.72;2.15;;;37.80;36.50;;;;;;5057169;28;20082;-79
2022/06/19 05:48:24;;;;;;;4.05;2.13;;;38.20;36.00;;;;;;5057916;28;20128;-80
2022/06/19 05:51:07;;;;;;;5.47;2.28;;;38.70;35.50;;;;;;5057176;28;20052;-79
2022/06/19 05:53:35;;;;;;;4.97;2.65;;;38.00;34.90;;;;;;5059276;28;20033;-79
2022/06/19 05:56:01;;;;;;;3.70;2.47;;;37.50;35.80;;;;;;5065613;28;20019;-79
2022/06/19 05:58:27;;;;;;;9.07;3.30;;;37.90;35.40;;;;;;5063125;28;20025;-83
2022/06/19 06:00:53;;;;;;;8.15;3.25;;;38.00;35.20;;;;;;5057965;28;20021;-80
2022/06/19 06:03:20;;;;;;;7.35;2.88;;;38.00;35.10;;;;;;5056904;28;20104;-80
2022/06/19 06:05:47;;;;;;;4.50;3.08;;;37.60;35.30;;;;;;5057370;28;20021;-78
2022/06/19 06:08:14;;;;;;;3.20;2.35;;;37.10;36.10;;;;;;5056913;28;20036;-80
2022/06/19 06:10:40;;;;;;;4.25;2.20;;;37.40;36.40;;;;;;5057097;28;20497;-80
2022/06/19 06:13:06;;;;;;;3.83;2.30;;;38.00;35.80;;;;;;5058407;28;20025;-78
2022/06/19 06:15:32;;;;;;;8.18;3.40;;;38.40;35.60;;;;;;5056269;28;20036;-80
2022/06/19 06:18:00;;;;;;;5.72;3.00;;;38.60;35.10;;;;;;5073326;28;20041;-82
2022/06/19 06:20:26;;;;;;;6.30;3.05;;;38.90;35.00;;;;;;5074755;28;20017;-83
2022/06/19 06:22:52;;;;;;;3.95;2.40;;;39.30;35.00;;;;;;5056423;28;20044;-81
2022/06/19 06:25:18;;;;;;;7.43;2.83;;;39.70;34.80;;;;;;5069328;28;20032;-80
2022/06/19 06:27:43;;;;;;;5.32;2.75;;;40.10;34.40;;;;;;5066431;28;20037;-79
2022/06/19 06:30:11;;;;;;;4.30;2.47;;;40.30;34.40;;;;;;5058832;28;20101;-83
2022/06/19 06:32:37;;;;;;;6.68;2.70;;;40.40;34.20;;;;;;5058598;28;20499;-85
2022/06/19 06:35:03;;;;;;;5.88;2.90;;;40.50;34.10;;;;;;5057753;28;20052;-79
2022/06/19 06:37:29;;;;;;;5.68;3.38;;;40.80;34.20;;;;;;5057491;28;20037;-79
2022/06/19 06:39:54;;;;;;;4.53;2.60;;;41.00;34.00;;;;;;5059122;28;20036;-79
2022/06/19 06:42:20;;;;;;;6.63;2.72;;;41.20;34.00;;;;;;5056301;28;20115;-81
2022/06/19 06:44:46;;;;;;;5.53;2.53;;;41.30;33.90;;;;;;5055710;28;20029;-78
2022/06/19 06:47:11;;;;;;;4.57;2.38;;;41.50;33.80;;;;;;5054349;28;20025;-80
2022/06/19 06:49:37;;;;;;;4.68;2.70;;;41.50;33.50;;;;;;5054586;28;20029;-79
2022/06/19 06:52:07;;;;;;;3.33;2.38;;;41.40;33.70;;;;;;5054738;28;20094;-79
2022/06/19 06:54:36;;;;;;;4.82;2.15;;;41.40;33.70;;;;;;5055322;28;20028;-78
2022/06/19 06:57:02;;;;;;;7.78;3.28;;;41.70;33.40;;;;;;5060963;28;20044;-78
2022/06/19 06:59:28;;;;;;;10.52;4.13;;;41.60;33.10;;;;;;5056815;28;20041;-78
2022/06/19 07:01:54;;;;;;;6.25;3.53;;;41.10;33.50;;;;;;5056602;28;20094;-81
2022/06/19 07:04:19;;;;;;;5.30;3.10;;;40.90;33.80;;;;;;5056829;28;20025;-78
2022/06/19 07:06:45;;;;;;;3.40;2.60;;;41.10;33.80;;;;;;5060821;28;20044;-78
2022/06/19 07:09:10;;;;;;;2.45;2.03;;;41.00;33.60;;;;;;5060137;28;20021;-77
2022/06/19 07:11:39;;;;;;;4.10;2.88;;;41.20;33.50;;;;;;5058896;28;20025;-81
2022/06/19 07:14:05;;;;;;;11.57;4.45;;;41.30;33.30;;;;;;5054938;28;20025;-80
2022/06/19 07:16:31;;;;;;;9.73;3.40;;;41.40;32.90;;;;;;5054946;28;20031;-80
2022/06/19 07:18:57;;;;;;;8.90;3.63;;;41.20;33.20;;;;;;5056213;28;20017;-79
2022/06/19 07:21:23;;;;;;;6.60;3.67;;;40.90;33.10;;;;;;5057315;28;20025;-79
2022/06/19 07:23:48;;;;;;;8.05;3.30;;;39.50;33.40;;;;;;5056183;28;20025;-81
2022/06/19 07:26:17;;;;;;;12.38;3.65;;;37.30;35.10;;;;;;5063506;28;20052;-80
2022/06/19 07:28:43;;;;;;;5.35;2.85;;;35.30;37.10;;;;;;5056562;28;20055;-80
2022/06/19 07:31:10;;;;;;;9.18;3.45;;;33.70;39.10;;;;;;5060050;28;20033;-80
2022/06/19 07:33:37;;;;;;;9.18;3.40;;;32.60;40.60;;;;;;5059692;28;20096;-80
2022/06/19 07:36:05;;;;;;;9.75;4.05;;;31.80;42.00;;;;;;5059817;28;20017;-81
2022/06/19 07:38:31;;;;;;;7.93;3.60;;;31.20;42.90;;;;;;5061869;28;20069;-79
2022/06/19 07:40:56;;;;;;;13.75;4.13;;;30.70;43.60;;;;;;5057413;28;20052;-78
2022/06/19 07:43:22;;;;;;;12.30;4.75;;;30.40;44.20;;;;;;5059972;28;20028;-79
2022/06/19 07:45:49;;;;;;;14.68;4.85;;;30.10;44.90;;;;;;5061850;28;20033;-80
2022/06/19 07:50:59;;;;;;;8.40;3.75;;;29.90;44.50;;;;;;5059494;28;20044;-79
2022/06/19 07:53:24;;;;;;;11.93;3.83;;;29.90;45.50;;;;;;5065400;28;20045;-79
2022/06/19 07:55:50;;;;;;;14.82;4.35;;;29.80;45.10;;;;;;5070526;28;20013;-79
2022/06/19 07:58:16;;;;;;;18.80;4.32;;;29.80;43.80;;;;;;5049600;28;20029;-81
2022/06/19 08:00:42;;;;;;;14.73;3.40;;;29.70;44.10;;;;;;5059947;28;20082;-80
2022/06/19 08:03:08;;;;;;;11.85;3.83;;;29.80;44.20;;;;;;5059372;28;20025;-80
2022/06/19 08:05:36;;;;;;;14.57;4.43;;;29.80;44.20;;;;;;5059123;28;20036;-79
2022/06/19 08:08:05;;;;;;;12.63;4.43;;;29.90;44.30;;;;;;5059366;28;20017;-79
2022/06/19 08:10:37;;;;;;;13.02;4.53;;;30.00;44.40;;;;;;5041307;28;20501;-78
2022/06/19 08:13:04;;;;;;;14.43;4.75;;;30.10;44.20;;;;;;5058133;28;20402;-77
2022/06/19 08:15:32;;;;;;;14.80;4.18;;;30.10;44.10;;;;;;5041166;28;20056;-78
2022/06/19 08:17:57;;;;;;;17.40;4.53;;;30.10;44.20;;;;;;5059832;28;20017;-80
2022/06/19 08:20:24;;;;;;;19.60;4.78;;;30.20;44.60;;;;;;5060976;28;20091;-79
2022/06/19 08:22:50;;;;;;;10.93;4.25;;;30.30;44.70;;;;;;5058810;28;20029;-80
2022/06/19 08:25:18;;;;;;;12.07;4.15;;;30.40;44.60;;;;;;5064972;28;20032;-78
2022/06/19 08:27:47;;;;;;;9.43;4.03;;;30.40;44.80;;;;;;5058456;28;20052;-80
2022/06/19 08:30:16;;;;;;;19.63;5.30;;;30.60;44.70;;;;;;5059494;28;20025;-79
2022/06/19 08:32:42;;;;;;;15.50;4.80;;;30.60;44.80;;;;;;5057422;28;20033;-80
2022/06/19 08:35:08;;;;;;;14.13;4.18;;;30.70;44.60;;;;;;5058269;28;20071;-84
2022/06/19 08:37:36;;;;;;;22.48;5.30;;;30.90;44.50;;;;;;5057759;28;20036;-79
2022/06/19 08:40:10;;;;;;;19.83;5.60;;;31.00;44.10;;;;;;5059314;28;20100;-79
2022/06/19 08:42:48;;;;;;;23.77;5.63;;;31.10;43.20;;;;;;5058164;28;20025;-79
2022/06/19 08:45:31;;;;;;;27.85;5.55;;;31.20;43.10;;;;;;5059598;28;20520;-80
2022/06/19 08:48:00;;;;;;;16.90;4.50;;;31.30;43.00;;;;;;5057630;28;20028;-79
2022/06/19 08:50:31;;;;;;;19.98;7.32;;;31.40;42.80;;;;;;5058146;28;20029;-78
2022/06/19 08:53:09;;;;;;;14.85;5.25;;;31.40;42.60;;;;;;5057363;28;20029;-78
2022/06/19 08:55:34;;;;;;;16.30;4.60;;;31.50;42.80;;;;;;5066974;28;20060;-83
2022/06/19 08:58:19;;;;;;;9.65;3.80;;;31.50;42.70;;;;;;5064391;28;20170;-77
2022/06/19 09:01:09;;;;;;;21.92;4.80;;;31.50;43.00;;;;;;5056383;28;20024;-80
2022/06/19 09:06:51;;;;;;;22.95;6.05;;;31.60;43.10;;;;;;5029797;28;20036;-80
2022/06/19 09:09:34;;;;;;;17.75;5.90;;;31.70;43.10;;;;;;5057351;28;20025;-77
2022/06/19 09:12:12;;;;;;;10.85;4.60;;;31.90;43.20;;;;;;5056210;28;20044;-78
2022/06/19 09:15:02;;;;;;;10.93;4.95;;;31.90;43.00;;;;;;5057021;28;20039;-79
2022/06/19 09:17:45;;;;;;;17.83;4.80;;;32.00;43.10;;;;;;5056441;28;20021;-80
2022/06/19 09:20:32;;;;;;;13.45;4.82;;;32.10;43.00;;;;;;5057419;28;20040;-80
2022/06/19 09:23:20;;;;;;;14.90;5.90;;;32.20;43.00;;;;;;5055987;28;20029;-79
2022/06/19 09:25:56;;;;;;;18.95;5.32;;;32.40;42.90;;;;;;5068307;28;20075;-79
2022/06/19 09:28:43;;;;;;;10.60;4.88;;;32.40;42.50;;;;;;5055701;28;20040;-80
2022/06/19 09:31:34;;;;;;;16.25;5.18;;;32.40;43.00;;;;;;5056149;28;20148;-79
2022/06/19 09:34:14;;;;;;;13.10;4.68;;;32.50;42.90;;;;;;5040408;28;20044;-78
2022/06/19 09:37:05;;;;;;;11.50;4.53;;;32.60;42.70;;;;;;5039549;28;20033;-82
2022/06/19 09:39:49;;;;;;;13.48;5.10;;;32.70;42.90;;;;;;5064478;28;20444;-81
2022/06/19 09:42:32;;;;;;;12.63;5.40;;;32.80;42.80;;;;;;5057501;28;20060;-79
2022/06/19 09:45:04;;;;;;;20.00;5.95;;;33.00;42.10;;;;;;5037170;28;20113;-81
2022/06/19 09:47:36;;;;;;;21.63;5.15;;;33.00;42.40;;;;;;5036898;28;20029;-78
2022/06/19 09:50:28;;;;;;;20.45;6.18;;;33.10;41.70;;;;;;5040150;28;20450;-77
2022/06/19 09:53:05;;;;;;;14.20;5.25;;;33.10;41.20;;;;;;5036568;28;20052;-80
2022/06/19 09:55:42;;;;;;;15.07;5.75;;;33.20;41.00;;;;;;5037086;28;20516;-79
2022/06/19 09:58:29;;;;;;;23.65;6.50;;;33.30;41.60;;;;;;5070713;28;20016;-80
2022/06/19 10:00:57;;;;;;;13.40;5.85;;;33.40;41.60;;;;;;5055233;28;20508;-78
2022/06/19 10:03:41;;;;;;;14.70;6.07;;;33.50;41.60;;;;;;5056645;28;20020;-81
2022/06/19 10:06:14;;;;;;;11.30;6.43;;;33.50;41.40;;;;;;5056917;28;20028;-80
2022/06/19 10:08:46;;;;;;;10.07;5.15;;;33.60;41.30;;;;;;5056102;28;20043;-79
2022/06/19 10:11:28;;;;;;;14.35;5.70;;;33.70;41.00;;;;;;5056232;28;20025;-79
2022/06/19 10:14:02;;;;;;;9.95;5.80;;;33.60;41.20;;;;;;5055633;28;20025;-79
2022/06/19 10:16:47;;;;;;;11.02;5.35;;;33.60;41.20;;;;;;5058428;28;20040;-79
2022/06/19 10:19:33;;;;;;;8.80;5.00;;;33.70;40.90;;;;;;5057484;28;20028;-79
2022/06/19 10:22:23;;;;;;;7.72;5.00;;;33.70;41.00;;;;;;5058978;28;20033;-81
2022/06/19 10:25:21;;;;;;;13.15;6.18;;;33.70;41.30;;;;;;5057820;28;20073;-81
2022/06/19 10:28:15;;;;;;;11.95;5.70;;;33.80;41.20;;;;;;5037802;28;20055;-84
2022/06/19 10:31:02;;;;;;;15.15;6.45;;;33.80;41.40;;;;;;5038322;28;20032;-81
2022/06/19 10:33:47;;;;;;;12.15;5.50;;;33.80;41.20;;;;;;5053486;28;20065;-80
2022/06/19 10:36:23;;;;;;;11.90;5.45;;;33.80;41.20;;;;;;5066325;28;20028;-82
2022/06/19 10:39:15;;;;;;;18.35;6.93;;;33.90;41.40;;;;;;5066733;28;20035;-80
2022/06/19 10:42:03;;;;;;;10.57;6.30;;;33.90;41.60;;;;;;5066049;28;20037;-80
2022/06/19 10:44:53;;;;;;;12.52;6.10;;;34.00;41.50;;;;;;5052155;28;20029;-82
2022/06/19 10:47:42;;;;;;;12.18;6.85;;;34.20;41.20;;;;;;5051162;28;20021;-82
2022/06/19 10:50:29;;;;;;;12.75;6.18;;;34.10;41.20;;;;;;5049095;28;20528;-79
2022/06/19 10:53:01;;;;;;;11.07;6.18;;;34.20;41.20;;;;;;5064015;28;20094;-83
2022/06/19 10:55:36;;;;;;;10.50;7.03;;;34.20;41.20;;;;;;5047406;28;20021;-81
2022/06/19 10:58:24;;;;;;;11.70;6.55;;;34.30;41.10;;;;;;5066164;28;20088;-82
2022/06/19 11:00:57;;;;;;;17.90;6.97;;;34.40;40.90;;;;;;5068600;28;20016;-82
2022/06/19 11:04:07;;;;;;;12.10;6.65;;;34.50;40.90;;;;;;5071654;28;20024;-79
2022/06/19 11:06:53;;;;;;;14.27;6.60;;;34.60;41.00;;;;;;5047847;28;20020;-80
2022/06/19 11:09:45;;;;;;;15.63;7.15;;;34.80;40.80;;;;;;5062399;28;20428;-80
2022/06/19 11:12:43;;;;;;;13.38;7.22;;;34.90;40.40;;;;;;5060556;28;20446;-82
2022/06/19 11:15:40;;;;;;;14.57;7.03;;;34.80;40.60;;;;;;5060444;28;20033;-81
2022/06/19 11:18:19;;;;;;;11.15;6.68;;;34.90;40.70;;;;;;5043493;28;20039;-79
2022/06/19 11:21:06;;;;;;;10.10;6.78;;;35.10;40.30;;;;;;5061918;28;20048;-81
2022/06/19 11:23:51;;;;;;;9.80;6.63;;;35.20;40.10;;;;;;5061081;28;20029;-78
2022/06/19 11:26:20;;;;;;;15.63;8.05;;;35.20;40.00;;;;;;5072713;22;20042;-84
2022/06/19 11:29:17;;;;;;;13.75;6.50;;;35.30;39.90;;;;;;5065128;28;20008;-86
2022/06/19 11:32:11;;;;;;;11.35;6.38;;;35.20;40.10;;;;;;5065427;28;20037;-83
2022/06/19 11:34:51;;;;;;;9.68;6.68;;;35.00;40.40;;;;;;5054064;28;20033;-83
2022/06/19 11:37:23;;;;;;;14.13;7.37;;;35.20;40.40;;;;;;5047179;28;20068;-85
2022/06/19 11:40:19;;;;;;;12.32;7.28;;;35.30;40.30;;;;;;5027109;28;20272;-84
2022/06/19 11:42:49;;;;;;;11.52;7.00;;;35.20;39.90;;;;;;5022089;28;20037;-85
2022/06/19 11:45:15;;;;;;;13.48;7.65;;;35.30;40.40;;;;;;5046437;28;20025;-83
2022/06/19 11:47:47;;;;;;;13.52;7.95;;;35.40;40.00;;;;;;5028387;28;20065;-83
2022/06/19 11:50:12;;;;;;;8.43;6.93;;;35.40;39.80;;;;;;5028543;28;20034;-84
2022/06/19 11:52:41;;;;;;;11.45;7.45;;;35.40;39.90;;;;;;5046268;28;20056;-84
2022/06/19 11:55:31;;;;;;;9.45;7.47;;;35.50;39.60;;;;;;5044819;28;20320;-84
2022/06/19 11:57:59;;;;;;;10.27;6.57;;;35.40;39.80;;;;;;5046275;28;20025;-85
2022/06/19 12:00:34;;;;;;;10.65;6.88;;;35.50;40.00;;;;;;5047237;28;20001;-86
2022/06/19 12:03:14;;;;;;;12.20;7.32;;;35.60;40.00;;;;;;5049262;28;20032;-84
2022/06/19 12:05:51;;;;;;;17.05;7.78;;;35.70;39.50;;;;;;5051089;28;20048;-81
2022/06/19 12:08:25;;;;;;;11.98;6.25;;;35.80;39.60;;;;;;5027222;28;20032;-83
2022/06/19 12:10:59;;;;;;;12.45;6.90;;;36.00;39.20;;;;;;5027886;28;20032;-84
2022/06/19 12:13:41;;;;;;;10.82;7.22;;;35.90;39.60;;;;;;5035730;28;20085;-82
2022/06/19 12:16:23;;;;;;;11.30;7.55;;;36.00;39.50;;;;;;5049684;28;20033;-82
2022/06/19 12:18:49;;;;;;;9.38;6.72;;;36.10;39.10;;;;;;5047393;28;20074;-83
2022/06/19 12:21:28;;;;;;;13.57;6.43;;;36.30;38.80;;;;;;5047920;28;20030;-83
2022/06/19 12:23:54;;;;;;;7.43;6.68;;;36.40;38.90;;;;;;5048227;28;20028;-84
2022/06/19 12:26:31;;;;;;;9.07;7.35;;;36.50;38.70;;;;;;5029100;28;20053;-82
2022/06/19 12:29:25;;;;;;;9.35;6.80;;;36.60;38.90;;;;;;5036710;28;20013;-83
2022/06/19 12:31:54;;;;;;;9.50;7.07;;;36.60;38.60;;;;;;5036064;28;20308;-84
2022/06/19 12:34:38;;;;;;;8.70;6.80;;;36.40;39.10;;;;;;5048698;28;20037;-84
2022/06/19 12:37:23;;;;;;;7.78;6.50;;;36.20;39.30;;;;;;5047104;28;20030;-84
2022/06/19 12:39:49;;;;;;;8.90;7.05;;;36.20;38.90;;;;;;5045147;28;20025;-84
2022/06/19 12:42:21;;;;;;;16.80;7.13;;;36.40;38.50;;;;;;5048374;28;20029;-84
2022/06/19 12:45:05;;;;;;;10.35;6.85;;;36.30;38.80;;;;;;5052318;28;20091;-84
2022/06/19 12:47:53;;;;;;;16.15;6.78;;;36.30;38.90;;;;;;5053669;28;20033;-82
2022/06/19 12:50:44;;;;;;;8.40;6.47;;;36.30;38.80;;;;;;5032425;28;20114;-83
2022/06/19 12:53:19;;;;;;;10.07;6.85;;;36.30;39.00;;;;;;5045067;28;20261;-84
2022/06/19 12:56:08;;;;;;;15.93;7.60;;;36.10;39.30;;;;;;5010125;28;20093;-83
2022/06/19 12:58:48;;;;;;;11.27;7.13;;;36.20;38.70;;;;;;5054049;28;20024;-83
2022/06/19 13:01:22;;;;;;;9.52;6.88;;;36.20;39.00;;;;;;5062640;28;20025;-84
2022/06/19 13:03:59;;;;;;;9.07;7.40;;;36.20;39.20;;;;;;5061802;28;20115;-84
2022/06/19 13:06:57;;;;;;;14.05;7.55;;;36.20;39.10;;;;;;5059922;28;20422;-85
2022/06/19 13:09:38;;;;;;;11.82;7.05;;;36.30;39.10;;;;;;4986286;28;20046;-84
2022/06/19 13:12:10;;;;;;;11.38;7.28;;;36.00;39.50;;;;;;5060519;28;20103;-84
2022/06/19 13:14:58;;;;;;;9.40;7.32;;;35.90;39.90;;;;;;5028112;28;20114;-87